createdAt,value
2022-12-08T00:01:17.855Z,1.40
2022-12-08T00:03:44.832Z,1.44
2022-12-08T00:06:42.460Z,1.42
2022-12-08T00:09:25.771Z,1.35
2022-12-08T00:12:18.698Z,1.39
2022-12-08T00:14:47.426Z,1.54
2022-12-08T00:17:16.497Z,1.42
2022-12-08T00:19:44.358Z,1.45
2022-12-08T00:22:13.004Z,1.42
2022-12-08T00:24:41.452Z,1.40
2022-12-08T00:27:09.712Z,1.31
2022-12-08T00:29:39.440Z,1.30
2022-12-08T00:32:07.010Z,1.27
2022-12-08T00:34:34.075Z,1.26
2022-12-08T00:37:00.762Z,1.24
2022-12-08T00:39:27.704Z,1.27
2022-12-08T00:42:12.468Z,1.19
2022-12-08T00:44:43.606Z,1.23
2022-12-08T00:47:10.761Z,1.19
2022-12-08T00:49:37.480Z,1.13
2022-12-08T00:52:04.273Z,1.20
2022-12-08T00:54:31.135Z,1.20
2022-12-08T00:56:57.898Z,1.13
2022-12-08T00:59:24.583Z,1.15
2022-12-08T01:01:51.328Z,1.24
2022-12-08T01:04:19.523Z,1.22
2022-12-08T01:06:46.975Z,1.25
2022-12-08T01:09:15.679Z,1.23
2022-12-08T01:11:44.061Z,1.18
2022-12-08T01:14:10.718Z,1.25
2022-12-08T01:16:37.540Z,1.28
2022-12-08T01:19:04.674Z,1.25
2022-12-08T01:21:31.353Z,1.21
2022-12-08T01:24:00.191Z,1.11
2022-12-08T01:26:27.195Z,1.19
2022-12-08T01:28:53.888Z,1.22
2022-12-08T01:31:21.928Z,1.29
2022-12-08T01:33:49.638Z,1.42
2022-12-08T01:36:31.603Z,1.31
2022-12-08T01:39:02.883Z,1.19
2022-12-08T01:41:32.763Z,1.31
2022-12-08T01:44:24.142Z,1.22
2022-12-08T01:46:53.707Z,1.28
2022-12-08T01:49:28.591Z,1.30
2022-12-08T01:52:00.673Z,1.37
2022-12-08T01:54:34.052Z,1.31
2022-12-08T01:57:10.200Z,1.24
2022-12-08T01:59:41.454Z,1.26
2022-12-08T02:02:10.530Z,1.36
2022-12-08T02:04:38.355Z,1.33
2022-12-08T02:07:08.330Z,1.23
2022-12-08T02:09:36.696Z,1.32
2022-12-08T02:12:04.278Z,1.33
2022-12-08T02:14:30.998Z,1.33
2022-12-08T02:17:15.392Z,1.27
2022-12-08T02:19:54.195Z,1.25
2022-12-08T02:22:20.782Z,1.25
2022-12-08T02:25:09.346Z,1.22
2022-12-08T02:27:54.249Z,1.22
2022-12-08T02:30:32.973Z,1.33
2022-12-08T02:33:18.280Z,1.40
2022-12-08T02:35:59.218Z,1.44
2022-12-08T02:38:41.117Z,1.42
2022-12-08T02:41:13.705Z,1.24
2022-12-08T02:43:48.360Z,1.34
2022-12-08T02:46:23.874Z,1.32
2022-12-08T02:48:52.333Z,1.24
2022-12-08T02:51:19.786Z,1.23
2022-12-08T02:53:47.982Z,1.21
2022-12-08T02:56:17.570Z,1.11
2022-12-08T02:59:24.608Z,1.14
2022-12-08T03:02:04.048Z,1.27
2022-12-08T03:04:46.625Z,1.13
2022-12-08T03:07:30.675Z,1.17
2022-12-08T03:10:12.190Z,1.17
2022-12-08T03:12:45.902Z,1.12
2022-12-08T03:15:16.990Z,1.12
2022-12-08T03:17:48.458Z,1.06
2022-12-08T03:20:20.837Z,1.05
2022-12-08T03:22:50.376Z,1.00
2022-12-08T03:25:22.170Z,0.93
2022-12-08T03:27:50.495Z,0.92
2022-12-08T03:30:17.531Z,1.04
2022-12-08T03:33:01.825Z,0.99
2022-12-08T03:35:31.680Z,1.04
2022-12-08T03:38:10.876Z,1.06
2022-12-08T03:40:38.858Z,1.06
2022-12-08T03:43:05.606Z,1.10
2022-12-08T03:45:32.392Z,1.38
2022-12-08T03:47:59.194Z,1.40
2022-12-08T03:50:26.351Z,1.23
2022-12-08T03:52:53.070Z,1.36
2022-12-08T03:55:22.514Z,1.28
2022-12-08T03:57:49.290Z,1.31
2022-12-08T04:00:17.093Z,1.27
2022-12-08T04:02:43.920Z,1.49
2022-12-08T04:05:10.671Z,1.52
2022-12-08T04:07:37.428Z,1.32
2022-12-08T04:10:05.346Z,1.26
2022-12-08T04:12:32.549Z,1.32
2022-12-08T04:14:59.253Z,1.28
2022-12-08T04:17:25.995Z,1.28
2022-12-08T04:19:52.801Z,1.26
2022-12-08T04:22:19.481Z,1.35
2022-12-08T04:24:46.313Z,1.29
2022-12-08T04:27:13.070Z,1.31
2022-12-08T04:29:39.839Z,1.26
2022-12-08T04:32:06.731Z,1.29
2022-12-08T04:34:33.588Z,1.26
2022-12-08T04:37:00.378Z,1.31
2022-12-08T04:39:27.123Z,1.25
2022-12-08T04:41:53.976Z,1.22
2022-12-08T04:44:20.699Z,1.39
2022-12-08T04:46:47.513Z,1.36
2022-12-08T04:49:14.305Z,1.24
2022-12-08T04:51:41.188Z,1.25
2022-12-08T04:54:07.896Z,1.29
2022-12-08T04:56:34.765Z,1.21
2022-12-08T04:59:01.544Z,1.26
2022-12-08T05:01:28.512Z,1.19
2022-12-08T05:03:55.274Z,1.22
2022-12-08T05:06:22.207Z,1.34
2022-12-08T05:08:48.973Z,1.33
2022-12-08T05:11:15.804Z,1.31
2022-12-08T05:13:42.704Z,1.42
2022-12-08T05:16:15.129Z,1.28
2022-12-08T05:18:42.527Z,1.20
2022-12-08T05:21:09.793Z,1.38
2022-12-08T05:23:36.801Z,1.31
2022-12-08T05:26:03.571Z,1.29
2022-12-08T05:28:45.841Z,1.32
2022-12-08T05:31:13.957Z,1.46
2022-12-08T05:33:41.541Z,1.33
2022-12-08T05:36:09.764Z,1.26
2022-12-08T05:38:36.572Z,1.31
2022-12-08T05:41:03.587Z,1.32
2022-12-08T05:43:30.956Z,1.26
2022-12-08T05:46:02.404Z,1.24
2022-12-08T05:48:29.330Z,1.14
2022-12-08T05:50:56.717Z,1.25
2022-12-08T05:53:24.425Z,1.22
2022-12-08T05:55:51.809Z,1.22
2022-12-08T05:58:20.452Z,1.14
2022-12-08T06:00:48.444Z,1.09
2022-12-08T06:03:17.689Z,1.07
2022-12-08T06:05:47.501Z,1.04
2022-12-08T06:08:14.843Z,1.12
2022-12-08T06:10:43.888Z,1.04
2022-12-08T06:13:11.578Z,0.96
2022-12-08T06:15:39.304Z,0.98
2022-12-08T06:18:06.800Z,0.97
2022-12-08T06:20:35.440Z,1.06
2022-12-08T06:23:10.742Z,1.08
2022-12-08T06:25:43.480Z,1.09
2022-12-08T06:28:10.214Z,1.16
2022-12-08T06:30:39.832Z,1.16
2022-12-08T06:33:07.477Z,1.17
2022-12-08T06:35:36.014Z,1.11
2022-12-08T06:38:03.048Z,1.15
2022-12-08T06:40:30.037Z,1.04
2022-12-08T06:42:57.655Z,1.04
2022-12-08T06:45:25.664Z,0.99
2022-12-08T06:47:55.308Z,1.04
2022-12-08T06:50:23.488Z,1.06
2022-12-08T06:53:02.805Z,1.10
2022-12-08T06:58:19.606Z,1.12
2022-12-08T07:00:47.540Z,1.10
2022-12-08T07:03:15.707Z,1.08
2022-12-08T07:05:42.572Z,1.05
2022-12-08T07:08:09.865Z,0.93
2022-12-08T07:10:37.080Z,0.98
2022-12-08T07:13:04.258Z,1.03
2022-12-08T07:15:31.159Z,1.05
2022-12-08T07:18:00.258Z,1.04
2022-12-08T07:20:27.782Z,1.02
2022-12-08T07:22:54.778Z,0.92
2022-12-08T07:25:22.405Z,0.86
2022-12-08T07:27:51.480Z,0.84
2022-12-08T07:30:18.619Z,0.85
2022-12-08T07:32:45.847Z,0.83
2022-12-08T07:35:12.778Z,0.63
2022-12-08T07:37:41.087Z,0.54
2022-12-08T07:40:09.053Z,0.49
2022-12-08T07:42:36.019Z,0.47
2022-12-08T07:45:06.244Z,0.59
2022-12-08T07:47:32.953Z,0.64
2022-12-08T07:49:59.682Z,0.69
2022-12-08T07:52:28.630Z,0.63
2022-12-08T07:54:55.401Z,0.48
2022-12-08T07:57:24.280Z,0.57
2022-12-08T07:59:52.662Z,0.73
2022-12-08T08:02:25.298Z,1.02
2022-12-08T08:04:52.330Z,1.09
2022-12-08T08:07:19.256Z,1.08
2022-12-08T08:09:45.991Z,1.06
2022-12-08T08:12:32.340Z,1.07
2022-12-08T08:15:11.611Z,1.06
2022-12-08T08:17:42.476Z,1.16
2022-12-08T08:20:10.030Z,1.38
2022-12-08T08:22:37.130Z,1.40
2022-12-08T08:25:04.124Z,1.35
2022-12-08T08:27:31.092Z,1.33
2022-12-08T08:29:58.642Z,1.26
2022-12-08T08:32:25.370Z,1.42
2022-12-08T08:34:52.208Z,1.47
2022-12-08T08:37:19.094Z,1.35
2022-12-08T08:39:45.852Z,1.32
2022-12-08T08:42:12.583Z,1.32
2022-12-08T08:44:39.260Z,1.18
2022-12-08T08:47:06.043Z,1.21
2022-12-08T08:49:32.785Z,1.32
2022-12-08T08:51:59.565Z,1.34
2022-12-08T08:54:28.353Z,1.26
2022-12-08T08:56:55.129Z,1.39
2022-12-08T08:59:21.943Z,1.33
2022-12-08T09:01:48.641Z,1.45
2022-12-08T09:04:16.054Z,1.36
2022-12-08T09:06:44.182Z,1.65
2022-12-08T09:09:11.472Z,1.49
2022-12-08T09:11:38.667Z,1.46
2022-12-08T09:14:08.132Z,1.53
2022-12-08T09:16:41.764Z,1.55
2022-12-08T09:19:09.624Z,1.53
2022-12-08T09:21:36.444Z,1.54
2022-12-08T09:24:03.161Z,1.52
2022-12-08T09:26:30.009Z,1.59
2022-12-08T09:28:57.838Z,1.57
2022-12-08T09:31:25.448Z,1.52
2022-12-08T09:33:52.486Z,1.43
2022-12-08T09:36:20.015Z,1.38
2022-12-08T09:38:46.775Z,1.42
2022-12-08T09:41:37.896Z,1.36
2022-12-08T09:44:25.976Z,1.29
2022-12-08T09:46:53.317Z,1.27
2022-12-08T09:49:25.942Z,1.28
2022-12-08T09:51:53.380Z,1.23
2022-12-08T09:54:24.933Z,1.24
2022-12-08T09:56:55.604Z,1.34
2022-12-08T09:59:25.780Z,1.34
2022-12-08T10:01:52.915Z,1.24
2022-12-08T10:04:35.104Z,1.33
2022-12-08T10:07:30.823Z,1.17
2022-12-08T10:10:04.093Z,1.06
2022-12-08T10:12:55.460Z,0.78
2022-12-08T10:15:45.820Z,0.81
2022-12-08T10:18:28.953Z,0.85
2022-12-08T10:21:02.521Z,0.91
2022-12-08T10:23:36.669Z,0.95
2022-12-08T10:26:06.698Z,0.97
2022-12-08T10:28:36.013Z,1.00
2022-12-08T10:31:05.742Z,0.96
2022-12-08T10:33:36.351Z,0.99
2022-12-08T10:36:04.901Z,1.20
2022-12-08T10:38:34.081Z,1.36
2022-12-08T10:41:09.767Z,1.57
2022-12-08T10:43:49.658Z,1.65
2022-12-08T10:46:20.990Z,1.75
2022-12-08T10:48:56.109Z,1.71
2022-12-08T10:51:33.193Z,1.60
2022-12-08T10:54:00.139Z,1.39
2022-12-08T10:56:31.414Z,1.48
2022-12-08T10:59:19.432Z,1.50
2022-12-08T11:01:49.033Z,1.58
2022-12-08T11:04:19.784Z,1.53
2022-12-08T11:06:48.094Z,1.74
2022-12-08T11:09:17.940Z,1.96
2022-12-08T11:11:55.449Z,1.85
2022-12-08T11:14:32.497Z,2.06
2022-12-08T11:17:27.129Z,2.35
2022-12-08T11:20:06.655Z,2.10
2022-12-08T11:22:41.954Z,2.04
2022-12-08T11:25:08.597Z,1.97
2022-12-08T11:27:37.638Z,2.01
2022-12-08T11:30:15.228Z,2.03
2022-12-08T11:32:44.919Z,1.86
2022-12-08T11:35:32.574Z,1.83
2022-12-08T11:38:21.457Z,1.99
2022-12-08T11:40:55.299Z,2.24
2022-12-08T11:43:37.504Z,2.41
2022-12-08T11:46:12.487Z,2.31
2022-12-08T11:48:48.578Z,2.38
2022-12-08T11:51:36.536Z,2.08
2022-12-08T11:54:18.703Z,1.67
2022-12-08T11:56:49.908Z,1.83
2022-12-08T11:59:41.909Z,1.67
2022-12-08T12:02:17.275Z,1.46
2022-12-08T12:04:56.062Z,1.53
2022-12-08T12:07:26.534Z,1.66
2022-12-08T12:10:08.752Z,1.38
2022-12-08T12:13:02.861Z,1.29
2022-12-08T12:15:47.817Z,1.38
2022-12-08T12:18:36.317Z,1.57
2022-12-08T12:21:07.320Z,1.66
2022-12-08T12:23:44.781Z,1.56
2022-12-08T12:26:52.080Z,1.38
2022-12-08T12:29:23.764Z,1.51
2022-12-08T12:31:59.304Z,1.45
2022-12-08T12:34:53.264Z,1.39
2022-12-08T12:37:41.693Z,1.27
2022-12-08T12:40:33.223Z,1.23
2022-12-08T12:42:59.791Z,1.01
2022-12-08T12:45:33.320Z,1.12
2022-12-08T12:48:00.153Z,1.09
2022-12-08T12:50:33.125Z,1.29
2022-12-08T12:53:15.931Z,1.38
2022-12-08T12:55:45.564Z,1.09
2022-12-08T12:58:27.473Z,1.21
2022-12-08T13:01:15.379Z,0.83
2022-12-08T13:04:07.385Z,0.93
2022-12-08T13:06:48.618Z,0.77
2022-12-08T13:09:44.724Z,0.76
2022-12-08T13:12:19.654Z,0.60
2022-12-08T13:14:49.414Z,0.56
2022-12-08T13:17:28.482Z,0.63
2022-12-08T13:19:57.777Z,0.62
2022-12-08T13:23:02.379Z,0.65
2022-12-08T13:25:44.137Z,0.60
2022-12-08T13:28:30.901Z,0.68
2022-12-08T13:30:58.616Z,0.59
2022-12-08T13:33:37.970Z,0.66
2022-12-08T13:36:04.595Z,0.45
2022-12-08T13:38:34.004Z,0.51
2022-12-08T13:41:03.263Z,0.37
2022-12-08T13:43:51.087Z,0.41
2022-12-08T13:47:17.182Z,0.32
2022-12-08T13:56:59.662Z,0.41
2022-12-08T13:58:40.401Z,0.17
2022-12-08T14:01:21.082Z,0.07
2022-12-08T14:04:21.750Z,0.03
2022-12-08T14:06:38.987Z,0.06
2022-12-08T14:09:11.440Z,-0.14
2022-12-08T14:11:41.107Z,0.12
2022-12-08T14:14:27.311Z,0.37
2022-12-08T14:17:05.470Z,0.21
2022-12-08T14:19:35.362Z,0.19
2022-12-08T14:22:08.120Z,0.06
2022-12-08T14:24:34.971Z,-0.04
2022-12-08T14:27:04.739Z,-0.07
2022-12-08T14:29:31.494Z,0.06
2022-12-08T14:31:58.471Z,-0.01
2022-12-08T14:34:25.210Z,0.02
2022-12-08T14:36:53.430Z,0.03
2022-12-08T14:39:21.009Z,0.03
2022-12-08T14:42:00.853Z,0.05
2022-12-08T14:44:32.181Z,0.27
2022-12-08T14:47:10.432Z,-0.11
2022-12-08T14:49:40.522Z,0.10
2022-12-08T14:52:14.426Z,0.07
2022-12-08T14:54:43.458Z,0.07
2022-12-08T14:57:13.078Z,0.18
2022-12-08T15:06:57.228Z,0.07
2022-12-08T15:09:37.433Z,0.09
2022-12-08T15:12:07.180Z,0.05
2022-12-08T15:14:43.044Z,0.18
2022-12-08T15:17:29.926Z,0.23
2022-12-08T15:19:58.601Z,0.18
2022-12-08T15:22:26.827Z,0.14
2022-12-08T15:24:53.958Z,0.35
2022-12-08T15:27:23.340Z,0.39
2022-12-08T15:29:50.792Z,0.30
2022-12-08T15:32:20.166Z,0.41
2022-12-08T15:34:46.997Z,0.42
2022-12-08T15:37:22.015Z,0.34
2022-12-08T15:39:49.086Z,0.39
2022-12-08T15:42:15.976Z,0.38
2022-12-08T15:44:42.968Z,0.46
2022-12-08T15:47:19.307Z,0.33
2022-12-08T15:49:48.175Z,0.42
2022-12-08T15:52:19.219Z,0.36
2022-12-08T15:54:46.159Z,0.30
2022-12-08T16:07:12.439Z,0.07
2022-12-08T16:09:25.095Z,0.00
2022-12-08T16:12:10.844Z,-0.02
2022-12-08T16:17:26.497Z,0.22
2022-12-08T16:19:53.236Z,0.12
2022-12-08T16:25:21.629Z,0.10
2022-12-08T16:28:01.281Z,-0.20
2022-12-08T16:30:28.572Z,-0.18
2022-12-08T16:32:55.262Z,-0.36
2022-12-08T16:35:22.075Z,-0.24
2022-12-08T16:37:48.895Z,-0.19
2022-12-08T16:40:15.738Z,-0.25
2022-12-08T16:42:47.743Z,-0.31
2022-12-08T16:45:23.091Z,-0.46
2022-12-08T16:47:55.292Z,-0.51
2022-12-08T16:50:34.986Z,-0.50
2022-12-08T16:53:04.688Z,-0.42
2022-12-08T16:55:32.539Z,-0.37
2022-12-08T16:57:59.321Z,-0.43
2022-12-08T17:00:28.797Z,-0.36
2022-12-08T17:02:56.319Z,-0.36
2022-12-08T17:05:24.903Z,-0.49
2022-12-08T17:07:52.853Z,-0.60
2022-12-08T17:10:23.151Z,-0.69
2022-12-08T17:12:50.314Z,-0.39
2022-12-08T17:15:19.834Z,-0.55
2022-12-08T17:17:46.694Z,-0.66
2022-12-08T17:20:16.362Z,-0.61
2022-12-08T17:22:43.570Z,-0.58
2022-12-08T17:25:15.548Z,-0.72
2022-12-08T17:27:42.859Z,-0.82
2022-12-08T17:30:14.927Z,-0.83
2022-12-08T17:32:42.951Z,-0.75
2022-12-08T17:35:11.286Z,-0.72
2022-12-08T17:37:37.967Z,-0.59
2022-12-08T17:40:10.079Z,-0.52
2022-12-08T17:42:40.099Z,-0.44
2022-12-08T17:45:08.477Z,-0.37
2022-12-08T17:47:42.364Z,-0.36
2022-12-08T17:50:32.586Z,-0.31
2022-12-08T17:52:59.355Z,-0.30
2022-12-08T17:55:26.043Z,-0.30
2022-12-08T17:57:52.846Z,-0.11
2022-12-08T18:00:19.742Z,0.00
2022-12-08T18:02:46.461Z,-0.14
2022-12-08T18:05:13.227Z,-0.17
2022-12-08T18:07:42.239Z,-0.24
2022-12-08T18:10:09.743Z,-0.19
2022-12-08T18:12:36.591Z,-0.34
2022-12-08T18:15:06.776Z,-0.09
2022-12-08T18:17:33.846Z,-0.07
2022-12-08T18:20:00.556Z,-0.08
2022-12-08T18:22:27.413Z,-0.11
2022-12-08T18:24:54.232Z,-0.08
2022-12-08T18:27:20.982Z,-0.08
2022-12-08T18:29:47.921Z,-0.07
2022-12-08T18:32:14.802Z,-0.11
2022-12-08T18:34:42.889Z,-0.16
2022-12-08T18:37:09.681Z,-0.09
2022-12-08T18:39:39.399Z,-0.09
2022-12-08T18:42:22.883Z,-0.06
2022-12-08T18:45:06.715Z,-0.02
2022-12-08T18:47:36.705Z,-0.03
2022-12-08T18:50:12.059Z,-0.07
2022-12-08T18:52:38.759Z,-0.01
2022-12-08T18:55:07.009Z,-0.10
2022-12-08T18:57:36.433Z,-0.01
2022-12-08T19:00:08.557Z,0.07
2022-12-08T19:02:36.298Z,0.03
2022-12-08T19:05:03.310Z,0.14
2022-12-08T19:07:30.175Z,0.01
2022-12-08T19:09:56.891Z,-0.14
2022-12-08T19:12:23.621Z,-0.21
2022-12-08T19:14:50.356Z,-0.24
2022-12-08T19:17:52.281Z,-0.29
2022-12-08T19:20:18.923Z,-0.38
2022-12-08T19:22:45.926Z,-0.28
2022-12-08T19:25:13.212Z,-0.26
2022-12-08T19:27:40.101Z,-0.19
2022-12-08T19:30:09.968Z,-0.08
2022-12-08T19:32:36.893Z,-0.02
2022-12-08T19:35:09.670Z,-0.12
2022-12-08T19:37:38.233Z,-0.09
2022-12-08T19:40:26.510Z,-0.16
2022-12-08T19:43:11.807Z,-0.14
2022-12-08T19:45:38.604Z,-0.19
2022-12-08T19:48:05.623Z,-0.26
2022-12-08T19:50:38.323Z,-0.24
2022-12-08T19:53:11.052Z,-0.29
2022-12-08T19:55:38.337Z,-0.36
2022-12-08T19:58:06.112Z,-0.33
2022-12-08T20:00:34.317Z,-0.48
2022-12-08T20:03:02.394Z,-0.53
2022-12-08T20:05:30.181Z,-0.83
2022-12-08T20:07:57.600Z,-0.79
2022-12-08T20:10:34.130Z,-0.70
2022-12-08T20:13:20.516Z,-0.63
2022-12-08T20:15:47.474Z,-0.55
2022-12-08T20:18:15.704Z,-0.58
2022-12-08T20:20:44.197Z,-0.37
2022-12-08T20:23:18.740Z,-0.44
2022-12-08T20:25:47.793Z,-0.28
2022-12-08T20:28:14.811Z,-0.48
2022-12-08T20:30:42.594Z,-0.45
2022-12-08T20:33:12.564Z,-0.56
2022-12-08T20:35:39.567Z,-0.55
2022-12-08T20:38:06.268Z,-0.55
2022-12-08T20:40:33.033Z,-0.44
2022-12-08T20:43:02.878Z,-0.36
2022-12-08T20:45:29.594Z,-0.36
2022-12-08T20:47:56.383Z,-0.26
2022-12-08T20:50:23.367Z,-0.16
2022-12-08T20:52:50.668Z,-0.28
2022-12-08T20:55:17.671Z,-0.21
2022-12-08T20:57:44.434Z,-0.11
2022-12-08T21:00:12.292Z,-0.26
2022-12-08T21:02:46.883Z,-0.14
2022-12-08T21:05:16.497Z,-0.10
2022-12-08T21:07:44.974Z,-0.16
2022-12-08T21:10:11.965Z,-0.08
2022-12-08T21:12:39.911Z,-0.04
2022-12-08T21:15:08.122Z,-0.01
2022-12-08T21:17:36.239Z,-0.01
2022-12-08T21:20:04.264Z,0.08
2022-12-08T21:22:31.327Z,0.28
2022-12-08T21:24:58.180Z,0.32
2022-12-08T21:27:25.163Z,0.15
2022-12-08T21:29:52.192Z,0.04
2022-12-08T21:32:19.252Z,0.03
2022-12-08T21:34:46.225Z,0.26
2022-12-08T21:37:13.062Z,0.33
2022-12-08T21:39:39.832Z,0.17
2022-12-08T21:42:27.831Z,0.11
2022-12-08T21:44:57.603Z,0.11
2022-12-08T21:47:24.305Z,0.12
2022-12-08T21:49:56.742Z,0.24
2022-12-08T21:52:25.399Z,0.27
2022-12-08T21:54:52.118Z,0.18
2022-12-08T21:57:19.282Z,0.23
2022-12-08T21:59:46.234Z,0.29
2022-12-08T22:02:19.430Z,0.29
2022-12-08T22:04:49.876Z,0.27
2022-12-08T22:07:18.913Z,0.32
2022-12-08T22:09:45.849Z,0.29
2022-12-08T22:12:13.185Z,0.36
2022-12-08T22:14:40.398Z,0.32
2022-12-08T22:17:07.557Z,0.35
2022-12-08T22:19:34.826Z,0.41
2022-12-08T22:22:01.909Z,0.48
2022-12-08T22:24:31.752Z,0.36
2022-12-08T22:26:58.802Z,0.23
2022-12-08T22:29:25.740Z,0.35
2022-12-08T22:31:52.581Z,0.25
2022-12-08T22:34:19.610Z,0.20
2022-12-08T22:36:46.478Z,0.20
2022-12-08T22:39:13.311Z,0.19
2022-12-08T22:41:40.083Z,0.15
2022-12-08T22:44:07.546Z,0.19
2022-12-08T22:46:34.894Z,0.18
2022-12-08T22:49:01.713Z,0.23
2022-12-08T22:51:28.439Z,0.22
2022-12-08T22:53:55.193Z,0.18
2022-12-08T22:56:21.934Z,0.15
2022-12-08T22:58:48.756Z,0.17
2022-12-08T23:01:26.135Z,-0.14
2022-12-08T23:03:53.275Z,-0.18
2022-12-08T23:06:20.383Z,-0.10
2022-12-08T23:08:47.389Z,-0.07
2022-12-08T23:11:14.502Z,-0.11
2022-12-08T23:13:41.294Z,-0.14
2022-12-08T23:16:09.645Z,-0.25
2022-12-08T23:18:37.483Z,-0.28
2022-12-08T23:21:10.090Z,-0.39
2022-12-08T23:23:37.378Z,-0.63
2022-12-08T23:26:04.909Z,-0.57
2022-12-08T23:28:31.600Z,-0.45
2022-12-08T23:30:58.570Z,-0.39
2022-12-08T23:33:25.554Z,-0.32
2022-12-08T23:35:58.763Z,-0.24
2022-12-08T23:38:26.152Z,-0.23
2022-12-08T23:40:53.214Z,-0.19
2022-12-08T23:43:20.136Z,-0.11
2022-12-08T23:45:48.530Z,0.02
2022-12-08T23:48:15.473Z,-0.01
2022-12-08T23:50:42.461Z,0.02
2022-12-08T23:53:09.227Z,-0.15
2022-12-08T23:55:35.941Z,0.08
2022-12-08T23:58:03.031Z,0.08
